Terminal Aerodrome Forecast
Issued by NWS Cleveland, OH

Home | Current Version | Previous Version | Graphics & Text | Print | Product List | Glossary Off
Versions: 1 2 3 4 5 6 7 8 9 10 11 12 13 14 15 16 17 18 19 20 21 22 23 24 25

000
FTUS41 KCLE 180550
TAFCLE
TAF
KCLE 180550Z 1806/1912 15015G25KT P6SM OVC035 WS020/20050KT
      TEMPO 1807/1808 3SM TSRA OVC035CB
     FM181300 20015G35KT 3SM SHRA VCTS OVC010CB WS020/22045KT
     FM181800 20015G35KT P6SM BKN010
     FM182200 25015G35KT 2SM TSRA OVC003CB
      TEMPO 1822/1823 VRB30G45KT 1SM +TSRA OVC003CB
     FM190000 27020G35KT 3SM -SHRA BR OVC007
     FM190300 30020G40KT 3SM -SHRA BR OVC010=

USA.gov is the U.S. government's official web portal to all federal, state and local government web resources and services.